METAR AND TAF INFORMATION
METAR FOR EHVK
ADDS - METARS form results

(1727 UTC 22 October 2017)
Data provider http://aviationweather.gov/adds/metars/
 
METAR text: EHVK 221725Z AUTO 23013KT 9999 FEW011 SCT040 BKN047 10/08 Q1013 BLU
Conditions at: EHVK (VOLKEL RNLAFB , NL) observed 1725 UTC 22 October 2017
Temperature: 10.0°C (50°F)
Dewpoint: 8.0°C (46°F) [RH = 87%]
Pressure (altimeter): 29.91 inches Hg (1013.0 mb)
Winds: from the SW (230 degrees) at 15 MPH (13 knots; 6.8 m/s)
Visibility: 6 or more miles (10+ km)
Ceiling: 4700 feet AGL
Clouds: few clouds at 1100 feet AGL
scattered clouds at 4000 feet AGL
broken clouds at 4700 feet AGL
Weather: no significant weather observed at this time

METAR text: EHVK 221709Z AUTO 23012KT 9999 FEW030 SCT036 BKN042 10/08 Q1013 BLU
Conditions at: EHVK (VOLKEL RNLAFB , NL) observed 1709 UTC 22 October 2017
Temperature: 10.0°C (50°F)
Dewpoint: 8.0°C (46°F) [RH = 87%]
Pressure (altimeter): 29.91 inches Hg (1013.0 mb)
Winds: from the SW (230 degrees) at 14 MPH (12 knots; 6.2 m/s)
Visibility: 6 or more miles (10+ km)
Ceiling: 4200 feet AGL
Clouds: few clouds at 3000 feet AGL
scattered clouds at 3600 feet AGL
broken clouds at 4200 feet AGL
Weather: no significant weather observed at this time

METAR text: EHVK 221655Z AUTO 24012KT 9999 FEW011 FEW015CB BKN053 BKN059 10/09 Q1012 REDZ BLU
Conditions at: EHVK (VOLKEL RNLAFB , NL) observed 1655 UTC 22 October 2017
Temperature: 10.0°C (50°F)
Dewpoint: 9.0°C (48°F) [RH = 93%]
Pressure (altimeter): 29.88 inches Hg (1012.0 mb)
Winds: from the WSW (240 degrees) at 14 MPH (12 knots; 6.2 m/s)
Visibility: 6 or more miles (10+ km)
Ceiling: 5300 feet AGL
Clouds: few clouds at 1100 feet AGL
few clouds at 1500 feet AGL
broken clouds at 5300 feet AGL
broken clouds at 5900 feet AGL
Weather: no significant weather observed at this time

METAR text: EHVK 221648Z AUTO 24013KT 9999 -DZ FEW010 SCT015 BKN036 10/09 Q1012 WHT
Conditions at: EHVK (VOLKEL RNLAFB , NL) observed 1648 UTC 22 October 2017
Temperature: 10.0°C (50°F)
Dewpoint: 9.0°C (48°F) [RH = 93%]
Pressure (altimeter): 29.88 inches Hg (1012.0 mb)
Winds: from the WSW (240 degrees) at 15 MPH (13 knots; 6.8 m/s)
Visibility: 6 or more miles (10+ km)
Ceiling: 3600 feet AGL
Clouds: few clouds at 1000 feet AGL
scattered clouds at 1500 feet AGL
broken clouds at 3600 feet AGL
Weather: -DZ  (light drizzle)

METAR text: EHVK 221642Z AUTO 24012KT 9999 -RA FEW010 SCT013 FEW015CB BKN038 10/09 Q1012 GRN
Conditions at: EHVK (VOLKEL RNLAFB , NL) observed 1642 UTC 22 October 2017
Temperature: 10.0°C (50°F)
Dewpoint: 9.0°C (48°F) [RH = 93%]
Pressure (altimeter): 29.88 inches Hg (1012.0 mb)
Winds: from the WSW (240 degrees) at 14 MPH (12 knots; 6.2 m/s)
Visibility: 6 or more miles (10+ km)
Ceiling: 3800 feet AGL
Clouds: few clouds at 1000 feet AGL
scattered clouds at 1300 feet AGL
few clouds at 1500 feet AGL
broken clouds at 3800 feet AGL
Weather: -RA  (light rain)

METAR text: EHVK 221633Z AUTO 24013KT 210V270 9999 -SHRA FEW015CB SCT035 BKN043 10/09 Q1012 BLU
Conditions at: EHVK (VOLKEL RNLAFB , NL) observed 1633 UTC 22 October 2017
Temperature: 10.0°C (50°F)
Dewpoint: 9.0°C (48°F) [RH = 93%]
Pressure (altimeter): 29.88 inches Hg (1012.0 mb)
Winds: from the WSW (240 degrees) at 15 MPH (13 knots; 6.8 m/s)
Visibility: 6 or more miles (10+ km)
Ceiling: 4300 feet AGL
Clouds: few clouds at 1500 feet AGL
scattered clouds at 3500 feet AGL
broken clouds at 4300 feet AGL
Weather: -SHRA  (light rain showers)

 AIRPORT MAP

 RUNWAY INFORMATION
Runway 06L Runway length 9922 ft Runway width 148 ft
Runway elevation 71 ft Runway displaced threshold 444 ft Runway heading 58
Runway 24R Runway length 9922 ft Runway width 148 ft
Runway elevation 64 ft Runway displaced threshold 444 ft Runway heading 238
Runway 06R Runway length 9931 ft Runway width 74 ft
Runway elevation 72 ft Runway displaced threshold 446 ft Runway heading 58
Runway 24L Runway length 9931 ft Runway width 74 ft
Runway elevation 65 ft Runway displaced threshold 446 ft Runway heading 238

 AIRPORT FREQUENCIES
Type APP Name RAPCON SOU Frequency 123.175 MHZ
Type GND Name GND Frequency 38.677 MHZ
Type TWR Name TWR Frequency 133.425 MHZ

 AIRPORT NEAR NAVIGATION AIDS
Type TACAN Name Volkel Frequency 108300 KHZ